Time;durP1;ratioP1;P1;durP2;ratioP2;P2;SDS_P1;SDS_P2;PMS_P1;PMS_P2;Temp;Humidity;BMP_temperature;BMP_pressure;BME280_temperature;BME280_humidity;BME280_pressure;Samples;Min_cycle;Max_cycle;Signal;HPM_P1;HPM_P2
2021/03/10 00:00:56;;;;;;;42.95;26.77;;;3.20;95.20;;;;;;4975877;28;20393;-83
2021/03/10 00:03:22;;;;;;;47.90;26.73;;;3.30;95.20;;;;;;4991217;28;20527;-83
2021/03/10 00:05:49;;;;;;;44.30;27.02;;;3.20;95.30;;;;;;5008224;28;20117;-82
2021/03/10 00:08:14;;;;;;;35.97;23.77;;;3.20;95.30;;;;;;5018016;28;20030;-83
2021/03/10 00:10:40;;;;;;;36.75;24.17;;;3.20;95.20;;;;;;4977810;28;20382;-82
2021/03/10 00:13:06;;;;;;;31.10;23.10;;;3.20;95.30;;;;;;4978409;28;20398;-82
2021/03/10 00:15:32;;;;;;;35.30;24.20;;;3.20;95.20;;;;;;4975709;28;20589;-83
2021/03/10 00:17:58;;;;;;;35.80;24.50;;;3.20;95.20;;;;;;5006055;28;20121;-83
2021/03/10 00:20:24;;;;;;;33.25;22.00;;;3.20;95.30;;;;;;5006417;28;20061;-83
2021/03/10 00:22:50;;;;;;;32.88;23.13;;;3.20;95.30;;;;;;5007237;28;20049;-82
2021/03/10 00:25:19;;;;;;;33.25;23.27;;;3.20;95.30;;;;;;4992815;28;20030;-83
2021/03/10 00:27:45;;;;;;;39.85;25.23;;;3.20;95.30;;;;;;4992809;28;20030;-83
2021/03/10 00:30:11;;;;;;;39.78;24.83;;;3.30;95.30;;;;;;4986137;28;20125;-85
2021/03/10 00:32:38;;;;;;;31.10;22.65;;;3.20;95.30;;;;;;4999800;28;20057;-84
2021/03/10 00:35:05;;;;;;;38.17;24.38;;;3.20;95.30;;;;;;4999706;28;20064;-83
2021/03/10 00:37:31;;;;;;;37.08;24.77;;;3.20;95.30;;;;;;5005256;28;20048;-83
2021/03/10 00:39:57;;;;;;;28.00;21.25;;;3.20;95.30;;;;;;4990653;28;20198;-83
2021/03/10 00:42:23;;;;;;;33.92;23.02;;;3.20;95.30;;;;;;5001847;28;20042;-83
2021/03/10 00:44:49;;;;;;;36.78;24.73;;;3.20;95.30;;;;;;4988870;28;20030;-82
2021/03/10 00:47:15;;;;;;;43.97;26.40;;;3.20;95.30;;;;;;4987428;28;20034;-83
2021/03/10 00:49:42;;;;;;;35.22;24.33;;;3.20;95.40;;;;;;5000415;28;20043;-82
2021/03/10 00:52:08;;;;;;;39.25;25.75;;;3.20;95.40;;;;;;5000802;28;20041;-84
2021/03/10 00:54:34;;;;;;;35.25;24.83;;;3.20;95.40;;;;;;5001965;28;20294;-82
2021/03/10 00:57:00;;;;;;;44.00;26.42;;;3.20;95.40;;;;;;5002844;28;20038;-84
2021/03/10 00:59:26;;;;;;;44.60;26.02;;;3.10;95.40;;;;;;4989083;28;20508;-84
2021/03/10 01:01:53;;;;;;;38.58;24.33;;;3.20;95.40;;;;;;4955328;28;20041;-82
2021/03/10 01:04:19;;;;;;;41.50;26.02;;;3.10;95.40;;;;;;5006749;28;20998;-83
2021/03/10 01:06:45;;;;;;;52.42;27.73;;;3.20;95.50;;;;;;5003637;28;20121;-83
2021/03/10 01:09:11;;;;;;;37.63;25.02;;;3.10;95.50;;;;;;5004456;28;20029;-83
2021/03/10 01:11:37;;;;;;;51.10;26.90;;;3.10;95.50;;;;;;4989331;28;20037;-83
2021/03/10 01:14:04;;;;;;;45.47;27.00;;;3.10;95.50;;;;;;4988838;28;20042;-84
2021/03/10 01:16:31;;;;;;;40.70;26.17;;;3.10;95.60;;;;;;5005659;28;20512;-83
2021/03/10 01:18:57;;;;;;;39.17;26.08;;;3.10;95.50;;;;;;5000696;28;20046;-82
2021/03/10 01:21:24;;;;;;;38.97;25.55;;;3.10;95.60;;;;;;5005227;28;20591;-83
2021/03/10 01:23:50;;;;;;;39.15;26.02;;;3.10;95.60;;;;;;4988409;28;20038;-83
2021/03/10 01:26:16;;;;;;;36.85;25.40;;;3.00;95.60;;;;;;5006467;28;20026;-83
2021/03/10 01:28:42;;;;;;;39.15;26.27;;;3.10;95.60;;;;;;5004544;28;20107;-82
2021/03/10 01:31:07;;;;;;;41.40;26.70;;;3.10;95.60;;;;;;4997833;28;20049;-82
2021/03/10 01:33:33;;;;;;;41.00;25.45;;;3.10;95.60;;;;;;5006439;28;20065;-82
2021/03/10 01:35:59;;;;;;;34.20;23.42;;;3.10;95.50;;;;;;4989947;28;20057;-82
2021/03/10 01:38:25;;;;;;;38.67;26.38;;;3.10;95.50;;;;;;4985003;28;20037;-83
2021/03/10 01:40:50;;;;;;;36.42;25.88;;;3.10;95.50;;;;;;5003257;28;20108;-83
2021/03/10 01:43:16;;;;;;;39.90;25.92;;;3.10;95.90;;;;;;5003134;28;21559;-83
2021/03/10 01:45:42;;;;;;;40.55;26.35;;;3.10;95.60;;;;;;5003935;28;20124;-83
2021/03/10 01:48:09;;;;;;;34.42;24.38;;;3.10;95.60;;;;;;4983829;28;20108;-83
2021/03/10 01:50:36;;;;;;;42.85;27.52;;;3.10;95.80;;;;;;5005095;28;20034;-83
2021/03/10 01:53:03;;;;;;;34.85;24.33;;;3.10;95.60;;;;;;4990195;28;20093;-83
2021/03/10 01:55:30;;;;;;;38.15;24.90;;;3.10;95.60;;;;;;5008390;28;20033;-82
2021/03/10 01:57:56;;;;;;;28.52;21.83;;;3.10;95.60;;;;;;5003464;28;20650;-83
2021/03/10 02:00:24;;;;;;;34.05;24.23;;;3.10;95.50;;;;;;5003212;28;20538;-83
2021/03/10 02:02:50;;;;;;;31.30;22.13;;;3.10;95.50;;;;;;4989765;28;20598;-84
2021/03/10 02:05:21;;;;;;;29.08;21.55;;;3.10;95.50;;;;;;5006318;28;20497;-82
2021/03/10 02:08:25;;;;;;;37.17;25.77;;;3.00;95.50;;;;;;5004585;28;20038;-83
2021/03/10 02:10:54;;;;;;;27.80;21.15;;;3.00;95.40;;;;;;4951220;28;20049;-82
2021/03/10 02:13:34;;;;;;;28.35;21.25;;;3.10;95.40;;;;;;5011252;28;20463;-83
2021/03/10 02:16:32;;;;;;;31.13;22.38;;;3.10;95.40;;;;;;5004015;28;20041;-82
2021/03/10 02:19:32;;;;;;;33.72;23.42;;;3.00;95.40;;;;;;4991015;28;20056;-82
2021/03/10 02:22:07;;;;;;;33.15;23.27;;;3.10;95.40;;;;;;5007021;28;20041;-83
2021/03/10 02:25:01;;;;;;;34.65;24.08;;;3.00;95.40;;;;;;5004550;28;20435;-83
2021/03/10 02:27:42;;;;;;;32.55;23.83;;;3.00;95.40;;;;;;5005476;28;20041;-83
2021/03/10 02:30:14;;;;;;;36.70;24.25;;;3.00;95.40;;;;;;5004304;28;20053;-83
2021/03/10 02:32:54;;;;;;;33.30;23.63;;;3.00;95.40;;;;;;4988299;28;20053;-83
2021/03/10 02:35:21;;;;;;;37.85;24.98;;;3.00;95.40;;;;;;5012091;28;20511;-83
2021/03/10 02:37:50;;;;;;;36.42;25.05;;;3.00;95.40;;;;;;5005197;28;20041;-83
2021/03/10 02:40:17;;;;;;;35.63;24.80;;;3.00;95.50;;;;;;5001071;28;20061;-83
2021/03/10 02:42:45;;;;;;;38.65;25.70;;;3.00;95.50;;;;;;5001833;28;20116;-83
2021/03/10 02:45:12;;;;;;;34.05;23.42;;;3.00;95.50;;;;;;5000184;28;20081;-83
2021/03/10 02:47:38;;;;;;;38.65;25.48;;;3.00;95.50;;;;;;4984164;28;20041;-83
2021/03/10 02:50:10;;;;;;;37.53;25.10;;;3.00;95.50;;;;;;4998059;28;20420;-83
2021/03/10 02:52:37;;;;;;;35.73;23.57;;;3.00;95.50;;;;;;5000181;28;20038;-83
2021/03/10 02:55:04;;;;;;;37.78;26.05;;;3.00;95.50;;;;;;5000732;28;20323;-83
2021/03/10 02:57:32;;;;;;;36.88;24.85;;;3.00;95.50;;;;;;4986350;28;20042;-83
2021/03/10 02:59:59;;;;;;;36.60;24.42;;;3.00;95.60;;;;;;5001560;28;20038;-83
2021/03/10 03:02:27;;;;;;;42.53;25.20;;;3.00;95.60;;;;;;4961179;28;20065;-83
2021/03/10 03:04:53;;;;;;;39.40;25.75;;;3.00;95.60;;;;;;5001880;28;20042;-83
2021/03/10 03:07:19;;;;;;;38.03;23.70;;;3.00;95.60;;;;;;5005431;28;20033;-83
2021/03/10 03:09:46;;;;;;;37.15;24.83;;;2.90;95.60;;;;;;5006649;28;20048;-82
2021/03/10 03:12:13;;;;;;;39.70;25.33;;;2.90;95.60;;;;;;5003928;28;20044;-83
2021/03/10 03:14:42;;;;;;;39.25;26.40;;;2.90;95.60;;;;;;4993003;28;20499;-82
2021/03/10 03:17:09;;;;;;;36.33;24.60;;;2.90;95.60;;;;;;4990559;28;20046;-83
2021/03/10 03:19:35;;;;;;;36.58;25.25;;;2.90;95.60;;;;;;4989944;28;20046;-83
2021/03/10 03:22:03;;;;;;;36.08;24.38;;;2.90;95.60;;;;;;5009015;28;20536;-82
2021/03/10 03:24:30;;;;;;;34.28;24.35;;;2.90;95.60;;;;;;5009000;28;20061;-83
2021/03/10 03:26:57;;;;;;;35.50;24.13;;;2.90;95.60;;;;;;4989203;28;20053;-82
2021/03/10 03:29:25;;;;;;;36.05;24.83;;;2.90;95.60;;;;;;4992036;28;20042;-83
2021/03/10 03:31:53;;;;;;;34.83;23.92;;;2.90;95.60;;;;;;5002801;28;20455;-83
2021/03/10 03:34:19;;;;;;;39.85;26.33;;;2.90;95.60;;;;;;4999942;28;20421;-82
2021/03/10 03:36:45;;;;;;;40.38;25.38;;;2.80;95.60;;;;;;4987994;28;20046;-83
2021/03/10 03:39:11;;;;;;;37.78;24.92;;;2.80;95.60;;;;;;4988935;28;20113;-84
2021/03/10 03:41:39;;;;;;;36.47;23.50;;;2.80;95.60;;;;;;4971635;28;20039;-83
2021/03/10 03:44:05;;;;;;;38.72;25.38;;;2.80;95.60;;;;;;4999887;28;20117;-82
2021/03/10 03:46:31;;;;;;;38.97;24.50;;;2.70;95.60;;;;;;5007730;28;20068;-83
2021/03/10 03:49:03;;;;;;;39.03;25.25;;;2.70;95.60;;;;;;4986904;28;20521;-82
2021/03/10 03:51:30;;;;;;;45.38;26.45;;;2.60;95.60;;;;;;5003659;28;20046;-83
2021/03/10 03:54:05;;;;;;;41.42;26.00;;;2.60;95.60;;;;;;5004178;28;20037;-84
2021/03/10 03:56:32;;;;;;;45.40;27.40;;;2.50;95.60;;;;;;4987309;28;20040;-83
2021/03/10 03:58:58;;;;;;;52.50;27.85;;;2.50;95.60;;;;;;4985826;28;20485;-82
2021/03/10 04:01:25;;;;;;;48.78;28.45;;;2.50;95.70;;;;;;5002357;28;20391;-82
2021/03/10 04:03:51;;;;;;;51.53;29.33;;;2.50;95.70;;;;;;5015383;28;20069;-83
2021/03/10 04:06:18;;;;;;;43.45;27.42;;;2.50;95.70;;;;;;5005074;28;20057;-82
2021/03/10 04:08:45;;;;;;;50.58;29.02;;;2.60;95.80;;;;;;5004806;28;20038;-83
2021/03/10 04:11:13;;;;;;;53.42;29.15;;;2.50;95.70;;;;;;5003961;28;20771;-84
2021/03/10 04:13:39;;;;;;;58.08;29.85;;;2.50;95.80;;;;;;4985385;28;20122;-85
2021/03/10 04:16:05;;;;;;;50.67;28.55;;;2.50;95.80;;;;;;5006426;28;20054;-85
2021/03/10 04:18:31;;;;;;;43.88;27.52;;;2.40;95.70;;;;;;4972224;28;20038;-85
2021/03/10 04:20:58;;;;;;;51.17;27.85;;;2.40;95.70;;;;;;5006642;28;20033;-83
2021/03/10 04:23:24;;;;;;;56.00;29.92;;;2.40;95.80;;;;;;5007429;28;20109;-85
2021/03/10 04:25:50;;;;;;;54.50;28.40;;;2.30;95.80;;;;;;4988505;28;20057;-84
2021/03/10 04:28:16;;;;;;;54.58;29.95;;;2.30;95.80;;;;;;4974395;28;20479;-85
2021/03/10 04:30:42;;;;;;;54.45;29.38;;;2.30;95.80;;;;;;4999271;28;20385;-83
2021/03/10 04:33:07;;;;;;;57.50;29.52;;;2.30;95.80;;;;;;4983005;28;20049;-83
2021/03/10 04:35:33;;;;;;;68.43;30.50;;;2.20;95.80;;;;;;4997810;28;20029;-83
2021/03/10 04:37:59;;;;;;;49.03;29.10;;;2.20;95.90;;;;;;4981843;28;20440;-84
2021/03/10 04:40:25;;;;;;;56.25;29.17;;;2.10;95.80;;;;;;4995934;28;20088;-85
2021/03/10 04:42:51;;;;;;;51.80;29.58;;;2.10;95.80;;;;;;4983345;28;20038;-84
2021/03/10 04:45:17;;;;;;;46.08;28.02;;;2.10;95.90;;;;;;4989480;28;20473;-84
2021/03/10 04:47:44;;;;;;;44.70;29.23;;;2.00;95.90;;;;;;4999536;28;20034;-84
2021/03/10 04:50:11;;;;;;;41.95;25.95;;;2.00;95.90;;;;;;4972821;28;20049;-83
2021/03/10 04:52:37;;;;;;;63.20;30.98;;;2.00;95.80;;;;;;4998092;28;20034;-84
2021/03/10 04:55:05;;;;;;;47.70;28.17;;;2.00;95.80;;;;;;4985979;28;20041;-84
2021/03/10 04:57:31;;;;;;;46.78;28.00;;;2.00;95.90;;;;;;5006126;28;20276;-83
2021/03/10 04:59:57;;;;;;;44.35;27.45;;;1.90;95.80;;;;;;4994233;28;20038;-84
2021/03/10 05:02:23;;;;;;;44.17;26.83;;;2.00;95.90;;;;;;4983044;28;20042;-82
2021/03/10 05:04:49;;;;;;;48.17;28.42;;;1.90;95.90;;;;;;4985516;28;20034;-84
2021/03/10 05:07:15;;;;;;;62.42;31.27;;;1.90;95.90;;;;;;4968347;28;20026;-85
2021/03/10 05:09:41;;;;;;;59.90;30.20;;;1.90;95.90;;;;;;4987415;28;20555;-84
2021/03/10 05:12:07;;;;;;;50.60;27.33;;;1.90;95.90;;;;;;4996421;28;20038;-84
2021/03/10 05:14:33;;;;;;;52.60;29.50;;;1.90;95.90;;;;;;4966828;28;20057;-83
2021/03/10 05:16:59;;;;;;;54.13;28.20;;;1.90;95.90;;;;;;4984356;28;20128;-84
2021/03/10 05:19:25;;;;;;;54.80;30.15;;;1.90;95.90;;;;;;4971204;28;20685;-84
2021/03/10 05:21:52;;;;;;;60.80;29.85;;;1.80;96.00;;;;;;5016705;28;20041;-84
2021/03/10 05:24:17;;;;;;;58.38;29.77;;;1.80;96.00;;;;;;4999961;28;20116;-85
2021/03/10 05:26:43;;;;;;;54.88;28.90;;;1.80;96.00;;;;;;4969044;28;20124;-84
2021/03/10 05:29:09;;;;;;;65.05;30.65;;;1.80;96.30;;;;;;4968662;28;20034;-85
2021/03/10 05:31:35;;;;;;;61.38;32.05;;;1.80;96.00;;;;;;4985755;28;20104;-86
2021/03/10 05:34:01;;;;;;;71.55;32.47;;;1.80;96.00;;;;;;4986776;28;20041;-84
2021/03/10 05:36:26;;;;;;;60.22;30.25;;;1.80;96.10;;;;;;4985619;28;20041;-86
2021/03/10 05:38:52;;;;;;;55.33;30.10;;;1.80;96.10;;;;;;5001398;28;20080;-85
2021/03/10 05:41:18;;;;;;;58.80;31.98;;;1.80;96.10;;;;;;4983195;28;20042;-85
2021/03/10 05:43:44;;;;;;;51.00;28.83;;;1.80;96.10;;;;;;4990290;28;20053;-85
2021/03/10 05:46:11;;;;;;;63.65;31.88;;;1.80;96.10;;;;;;4983552;28;20038;-86
2021/03/10 05:48:37;;;;;;;59.17;31.20;;;1.80;96.10;;;;;;4998412;28;20077;-85
2021/03/10 05:51:03;;;;;;;61.97;32.25;;;1.80;96.10;;;;;;4966891;28;20069;-84
2021/03/10 05:53:38;;;;;;;65.03;34.40;;;1.80;96.10;;;;;;4984614;28;21853;-84
2021/03/10 05:56:05;;;;;;;72.05;35.00;;;1.90;96.20;;;;;;4981526;28;20789;-86
2021/03/10 05:58:31;;;;;;;59.83;32.60;;;1.90;96.50;;;;;;4970653;28;20033;-86
2021/03/10 06:00:57;;;;;;;60.60;32.70;;;1.90;96.10;;;;;;4985898;28;20402;-84
2021/03/10 06:03:23;;;;;;;72.72;35.30;;;2.00;96.20;;;;;;4965957;28;20038;-86
2021/03/10 06:06:04;;;;;;;82.93;37.90;;;2.00;96.20;;;;;;4980561;28;20551;-86
2021/03/10 06:08:33;;;;;;;67.90;34.95;;;2.00;96.20;;;;;;4973307;28;20064;-85
2021/03/10 06:10:58;;;;;;;62.05;34.63;;;2.10;96.30;;;;;;4951979;28;20057;-86
2021/03/10 06:13:25;;;;;;;68.47;35.58;;;2.10;96.30;;;;;;4964220;28;20579;-85
2021/03/10 06:15:55;;;;;;;73.32;37.58;;;2.20;96.30;;;;;;4957297;28;20042;-83
2021/03/10 06:18:28;;;;;;;66.00;35.22;;;2.20;96.30;;;;;;4984992;28;20244;-86
2021/03/10 06:21:07;;;;;;;70.43;35.35;;;2.30;96.30;;;;;;4977464;28;20356;-86
2021/03/10 06:23:51;;;;;;;67.60;35.63;;;2.30;96.30;;;;;;4969146;28;20503;-86
2021/03/10 06:26:19;;;;;;;63.47;35.67;;;2.40;96.30;;;;;;4975360;28;20679;-85
2021/03/10 06:28:45;;;;;;;61.50;35.67;;;2.40;96.30;;;;;;4978665;28;20547;-86
2021/03/10 06:31:34;;;;;;;64.53;35.92;;;2.50;96.30;;;;;;4965548;28;20042;-84
2021/03/10 06:34:16;;;;;;;61.85;34.45;;;2.60;96.30;;;;;;4980410;28;20844;-83
2021/03/10 06:36:48;;;;;;;69.63;37.15;;;2.60;96.30;;;;;;4984414;28;20495;-85
2021/03/10 06:39:25;;;;;;;76.30;37.80;;;2.60;96.30;;;;;;4983209;28;20042;-86
2021/03/10 06:41:50;;;;;;;65.45;35.33;;;2.60;96.20;;;;;;4989375;28;20108;-85
2021/03/10 06:44:19;;;;;;;63.22;35.70;;;2.70;96.30;;;;;;4962254;28;20042;-83
2021/03/10 06:46:56;;;;;;;63.25;34.88;;;2.70;96.20;;;;;;4987312;28;20076;-85
2021/03/10 06:49:26;;;;;;;54.95;34.70;;;2.70;96.20;;;;;;4984065;28;20618;-83
2021/03/10 06:52:06;;;;;;;68.50;36.08;;;2.70;96.20;;;;;;4987257;28;20068;-84
2021/03/10 06:54:32;;;;;;;52.30;31.90;;;2.80;96.30;;;;;;4969301;28;20041;-83
2021/03/10 06:57:10;;;;;;;54.63;32.10;;;2.80;96.20;;;;;;4971902;28;20060;-82
2021/03/10 06:59:43;;;;;;;51.67;31.05;;;2.80;96.20;;;;;;4986904;28;20888;-84
2021/03/10 07:02:19;;;;;;;50.17;31.58;;;2.90;96.20;;;;;;4969386;28;20471;-82
2021/03/10 07:04:47;;;;;;;52.28;31.70;;;2.90;96.20;;;;;;4998183;28;20488;-86
2021/03/10 07:07:15;;;;;;;53.42;31.02;;;3.00;96.10;;;;;;4983977;28;20080;-87
2021/03/10 07:09:41;;;;;;;44.45;28.65;;;3.10;96.10;;;;;;4965546;28;20582;-84
2021/03/10 07:12:10;;;;;;;53.08;31.40;;;3.00;96.00;;;;;;4963560;28;20037;-84
2021/03/10 07:14:36;;;;;;;46.58;29.10;;;3.00;96.00;;;;;;4968583;28;20108;-83
2021/03/10 07:17:07;;;;;;;49.95;31.60;;;3.10;96.00;;;;;;4960813;28;20045;-82
2021/03/10 07:19:33;;;;;;;47.13;28.90;;;3.10;95.90;;;;;;5002846;28;22507;-83
2021/03/10 07:22:02;;;;;;;48.45;29.48;;;3.10;95.80;;;;;;4968243;28;20353;-82
2021/03/10 07:24:41;;;;;;;46.25;28.58;;;3.10;95.80;;;;;;4982407;28;20049;-86
2021/03/10 07:27:09;;;;;;;43.80;26.58;;;3.20;96.10;;;;;;4984855;28;20180;-82
2021/03/10 07:29:37;;;;;;;47.75;28.67;;;3.20;95.80;;;;;;4969396;28;20084;-83
2021/03/10 07:32:05;;;;;;;50.85;30.70;;;3.20;95.70;;;;;;4965759;28;20045;-83
2021/03/10 07:34:31;;;;;;;48.58;30.38;;;3.30;95.70;;;;;;4965767;28;20946;-82
2021/03/10 07:36:57;;;;;;;44.75;28.63;;;3.30;95.70;;;;;;4965015;28;20064;-85
2021/03/10 07:39:31;;;;;;;46.63;27.67;;;3.30;95.70;;;;;;4971164;28;20038;-84
2021/03/10 07:42:13;;;;;;;45.63;27.98;;;3.30;95.70;;;;;;4980729;28;20038;-82
2021/03/10 07:44:39;;;;;;;45.42;26.88;;;3.40;95.70;;;;;;4966472;28;20035;-83
2021/03/10 07:47:12;;;;;;;49.50;31.00;;;3.40;95.50;;;;;;4980876;28;20092;-84
2021/03/10 07:49:40;;;;;;;43.65;26.67;;;3.50;95.60;;;;;;5000228;28;20038;-82
2021/03/10 07:52:12;;;;;;;49.97;29.95;;;3.60;95.50;;;;;;4989676;28;20049;-84
2021/03/10 07:54:39;;;;;;;48.60;29.02;;;3.60;95.50;;;;;;4975250;28;20610;-85
2021/03/10 07:57:16;;;;;;;44.22;27.05;;;3.60;95.40;;;;;;4968929;28;20109;-85
2021/03/10 07:59:56;;;;;;;43.50;26.50;;;3.70;95.30;;;;;;4984327;28;20894;-84
2021/03/10 08:02:24;;;;;;;39.55;24.38;;;3.80;95.30;;;;;;4981760;28;20100;-84
2021/03/10 08:04:56;;;;;;;42.58;26.95;;;3.80;95.20;;;;;;4987250;28;20106;-83
2021/03/10 08:07:24;;;;;;;42.75;25.67;;;3.80;95.10;;;;;;4973147;28;20141;-83
2021/03/10 08:09:51;;;;;;;40.28;25.05;;;3.80;94.90;;;;;;4982009;28;20133;-82
2021/03/10 08:12:20;;;;;;;41.83;27.40;;;3.90;95.00;;;;;;4978346;28;21157;-84
2021/03/10 08:14:47;;;;;;;39.85;24.92;;;3.90;95.00;;;;;;4977530;28;20092;-84
2021/03/10 08:17:21;;;;;;;41.28;26.20;;;4.00;94.90;;;;;;4955437;28;20037;-82
2021/03/10 08:19:54;;;;;;;38.65;25.75;;;4.00;94.90;;;;;;4985594;28;20042;-83
2021/03/10 08:22:23;;;;;;;39.38;24.88;;;4.10;94.90;;;;;;4964093;28;20041;-86
2021/03/10 08:24:50;;;;;;;42.08;26.17;;;4.10;95.10;;;;;;4963279;28;20038;-84
2021/03/10 08:27:16;;;;;;;40.47;25.45;;;4.20;94.90;;;;;;4987100;28;20116;-85
2021/03/10 08:29:46;;;;;;;40.97;24.70;;;4.20;94.80;;;;;;4968925;28;20128;-82
2021/03/10 08:32:26;;;;;;;36.60;23.20;;;4.20;94.80;;;;;;4981585;28;20073;-83
2021/03/10 08:34:52;;;;;;;38.03;24.75;;;4.30;94.80;;;;;;4985103;28;20400;-85
2021/03/10 08:37:18;;;;;;;43.67;25.83;;;4.30;94.70;;;;;;4979478;28;20035;-84
2021/03/10 08:39:48;;;;;;;44.55;25.83;;;4.30;94.70;;;;;;4973630;28;20042;-81
2021/03/10 08:42:18;;;;;;;38.22;24.15;;;4.40;94.80;;;;;;4981178;28;20092;-83
2021/03/10 08:44:45;;;;;;;40.63;25.38;;;4.40;94.60;;;;;;4981655;28;20496;-83
2021/03/10 08:47:17;;;;;;;37.85;25.35;;;4.50;94.50;;;;;;4984985;28;20478;-81
2021/03/10 08:49:44;;;;;;;39.78;25.80;;;4.50;94.60;;;;;;4983412;28;20504;-83
2021/03/10 08:52:16;;;;;;;38.05;24.35;;;4.50;94.60;;;;;;4978656;28;20215;-83
2021/03/10 08:55:03;;;;;;;39.00;24.20;;;4.60;94.60;;;;;;4979017;28;20046;-82
2021/03/10 08:57:31;;;;;;;43.20;25.85;;;4.70;94.50;;;;;;4969817;28;20030;-86
2021/03/10 08:59:58;;;;;;;44.63;25.73;;;4.70;94.50;;;;;;4965049;28;20034;-82
2021/03/10 09:02:35;;;;;;;41.13;24.95;;;4.80;94.40;;;;;;4979514;28;20512;-83
2021/03/10 09:05:03;;;;;;;42.28;25.85;;;4.90;94.20;;;;;;4972031;28;20038;-83
2021/03/10 09:07:30;;;;;;;41.88;26.27;;;4.90;94.10;;;;;;4985200;28;20069;-83
2021/03/10 09:10:13;;;;;;;41.65;27.02;;;5.00;94.10;;;;;;4986766;28;20029;-86
2021/03/10 09:12:42;;;;;;;41.03;25.48;;;5.00;94.20;;;;;;4984426;28;20030;-84
2021/03/10 09:15:14;;;;;;;39.05;25.45;;;5.10;94.30;;;;;;4987738;28;20473;-83
2021/03/10 09:17:40;;;;;;;42.63;26.33;;;5.10;94.10;;;;;;4991988;28;20029;-82
2021/03/10 09:20:11;;;;;;;41.42;26.80;;;5.20;94.10;;;;;;4994016;28;20117;-83
2021/03/10 09:22:47;;;;;;;41.25;27.05;;;5.30;94.10;;;;;;4987195;28;20120;-81
2021/03/10 09:25:20;;;;;;;41.38;27.10;;;5.30;94.10;;;;;;4986229;28;20037;-80
2021/03/10 09:27:46;;;;;;;38.08;23.30;;;5.40;94.10;;;;;;4983674;28;20034;-83
2021/03/10 09:30:27;;;;;;;40.97;26.38;;;5.40;93.90;;;;;;4981589;28;20046;-83
2021/03/10 09:32:53;;;;;;;40.20;26.60;;;5.50;93.90;;;;;;4985229;28;20034;-81
2021/03/10 09:35:37;;;;;;;48.60;28.65;;;5.50;94.00;;;;;;4986405;28;20429;-83
2021/03/10 09:38:09;;;;;;;40.78;27.15;;;5.50;93.80;;;;;;4961724;28;20047;-82
2021/03/10 09:40:41;;;;;;;49.93;29.23;;;5.60;93.90;;;;;;4983642;28;20055;-81
2021/03/10 09:43:09;;;;;;;42.25;27.25;;;5.60;93.80;;;;;;4982564;28;20092;-80
2021/03/10 09:45:37;;;;;;;44.95;29.17;;;5.70;93.90;;;;;;4982112;28;20069;-83
2021/03/10 09:48:18;;;;;;;52.80;28.58;;;5.70;93.90;;;;;;4967566;28;20053;-80
2021/03/10 09:50:49;;;;;;;44.33;29.52;;;5.80;93.90;;;;;;4964047;28;21375;-82
2021/03/10 09:53:24;;;;;;;47.38;30.05;;;5.90;94.00;;;;;;4970532;28;20045;-83
2021/03/10 09:55:50;;;;;;;50.95;30.88;;;6.00;93.80;;;;;;4980045;28;20663;-82
2021/03/10 09:58:16;;;;;;;52.88;32.08;;;6.10;93.80;;;;;;4990820;28;20103;-84
2021/03/10 10:00:44;;;;;;;52.15;31.63;;;6.20;93.80;;;;;;4966714;28;20496;-82
2021/03/10 10:03:11;;;;;;;52.38;32.38;;;6.20;93.70;;;;;;4979402;28;20038;-82
2021/03/10 10:05:39;;;;;;;55.05;34.25;;;6.30;93.70;;;;;;4994267;28;20038;-82
2021/03/10 10:08:07;;;;;;;50.80;32.03;;;6.40;93.90;;;;;;4985082;28;20401;-81
2021/03/10 10:10:35;;;;;;;57.55;35.60;;;6.40;93.30;;;;;;4980660;28;20061;-83
2021/03/10 10:13:03;;;;;;;59.00;37.08;;;6.40;93.50;;;;;;4979243;28;20061;-82
2021/03/10 10:15:32;;;;;;;55.20;35.25;;;6.50;93.60;;;;;;4950025;28;20046;-83
2021/03/10 10:18:04;;;;;;;57.95;36.58;;;6.60;93.40;;;;;;4988184;28;20074;-83
2021/03/10 10:20:33;;;;;;;55.88;34.72;;;6.60;93.30;;;;;;4975159;28;20051;-83
2021/03/10 10:22:59;;;;;;;62.42;39.15;;;6.60;93.30;;;;;;4984223;28;20496;-81
2021/03/10 10:25:26;;;;;;;57.10;36.03;;;6.60;93.30;;;;;;4949526;28;20046;-83
2021/03/10 10:27:52;;;;;;;64.50;40.08;;;6.60;93.40;;;;;;4961739;28;20386;-83
2021/03/10 10:30:19;;;;;;;64.47;38.55;;;6.60;93.40;;;;;;4988149;28;21331;-82
2021/03/10 10:32:46;;;;;;;62.17;38.72;;;6.60;93.40;;;;;;4951602;28;20038;-81
2021/03/10 10:35:13;;;;;;;65.40;39.50;;;6.60;93.30;;;;;;4969246;28;20040;-83
2021/03/10 10:37:40;;;;;;;63.22;38.50;;;6.60;93.10;;;;;;4974009;28;20124;-79
2021/03/10 10:40:10;;;;;;;58.88;37.75;;;6.70;93.50;;;;;;4981275;28;20045;-83
2021/03/10 10:42:36;;;;;;;55.28;36.60;;;6.70;93.40;;;;;;4987426;28;20446;-80
2021/03/10 10:45:04;;;;;;;61.63;38.17;;;6.70;93.40;;;;;;4981681;28;20091;-83
2021/03/10 10:47:30;;;;;;;61.55;38.28;;;6.70;93.30;;;;;;4971535;28;20645;-81
2021/03/10 10:49:56;;;;;;;62.05;38.85;;;6.70;93.30;;;;;;4969789;28;20111;-82
2021/03/10 10:52:22;;;;;;;63.00;39.85;;;6.70;93.10;;;;;;4979115;28;20038;-82
2021/03/10 10:54:48;;;;;;;60.45;37.22;;;6.80;93.40;;;;;;4960047;28;20038;-81
2021/03/10 10:57:13;;;;;;;66.25;40.05;;;6.80;93.30;;;;;;4982906;28;20176;-82
2021/03/10 10:59:39;;;;;;;66.78;39.83;;;6.80;93.40;;;;;;4981718;28;20151;-80
2021/03/10 11:02:06;;;;;;;61.95;37.88;;;6.90;93.40;;;;;;4964132;28;20042;-81
2021/03/10 11:04:31;;;;;;;60.28;35.72;;;6.90;93.40;;;;;;4957888;28;20065;-83
2021/03/10 11:06:57;;;;;;;58.42;34.85;;;7.00;93.40;;;;;;4963656;28;20034;-83
2021/03/10 11:09:23;;;;;;;60.78;38.65;;;7.00;93.20;;;;;;4962197;28;20034;-80
2021/03/10 11:11:49;;;;;;;59.58;38.90;;;7.10;93.30;;;;;;4947308;28;20042;-83
2021/03/10 11:14:15;;;;;;;60.72;35.92;;;7.10;93.30;;;;;;4991190;28;20045;-83
2021/03/10 11:16:41;;;;;;;54.88;33.63;;;7.10;93.00;;;;;;4964120;28;20511;-82
2021/03/10 11:19:07;;;;;;;54.65;34.65;;;7.10;93.00;;;;;;4967037;28;21671;-81
2021/03/10 11:21:32;;;;;;;55.13;36.70;;;7.10;92.90;;;;;;4963284;28;20380;-82
2021/03/10 11:23:58;;;;;;;55.03;33.92;;;7.10;92.90;;;;;;4955744;28;20049;-81
2021/03/10 11:26:25;;;;;;;55.65;37.28;;;7.10;92.80;;;;;;4983771;28;20172;-83
2021/03/10 11:28:50;;;;;;;53.53;35.63;;;7.10;92.90;;;;;;4971536;28;20298;-83
2021/03/10 11:31:16;;;;;;;52.50;32.50;;;7.20;92.80;;;;;;4974848;28;20042;-82
2021/03/10 11:33:42;;;;;;;52.38;34.33;;;7.20;92.60;;;;;;4986599;28;20042;-83
2021/03/10 11:36:08;;;;;;;53.22;34.75;;;7.20;92.60;;;;;;4976667;28;20040;-82
2021/03/10 11:38:34;;;;;;;56.38;36.13;;;7.30;92.80;;;;;;4991047;28;20144;-83
2021/03/10 11:41:01;;;;;;;52.53;34.53;;;7.20;92.80;;;;;;4988418;28;20038;-80
2021/03/10 11:43:27;;;;;;;52.40;34.05;;;7.30;92.90;;;;;;4969778;28;20108;-81
2021/03/10 11:45:53;;;;;;;50.38;32.42;;;7.30;92.80;;;;;;4988650;28;20092;-81
2021/03/10 11:48:19;;;;;;;54.33;32.90;;;7.30;92.40;;;;;;4983667;28;20038;-82
2021/03/10 11:50:45;;;;;;;48.08;32.10;;;7.30;92.50;;;;;;4956027;28;20154;-82
2021/03/10 11:53:10;;;;;;;48.53;31.98;;;7.30;92.40;;;;;;4964444;28;20042;-81
2021/03/10 11:55:37;;;;;;;50.45;32.58;;;7.30;92.50;;;;;;4984047;28;20049;-82
2021/03/10 11:58:03;;;;;;;48.63;31.60;;;7.30;92.70;;;;;;4989714;28;20041;-81
2021/03/10 12:00:29;;;;;;;48.67;29.77;;;7.30;92.20;;;;;;4968700;28;20034;-83
2021/03/10 12:02:55;;;;;;;55.22;34.63;;;7.40;92.30;;;;;;4986921;28;20407;-80
2021/03/10 12:05:21;;;;;;;51.83;33.17;;;7.40;92.60;;;;;;4950677;28;20045;-82
2021/03/10 12:07:47;;;;;;;45.67;30.45;;;7.40;92.60;;;;;;4972386;28;20038;-82
2021/03/10 12:10:15;;;;;;;47.78;30.63;;;7.50;92.10;;;;;;4983177;28;20049;-81
2021/03/10 12:12:40;;;;;;;48.53;32.13;;;7.50;92.10;;;;;;4973233;28;20560;-83
2021/03/10 12:15:08;;;;;;;48.45;31.02;;;7.50;92.40;;;;;;4962939;28;20044;-79
2021/03/10 12:17:34;;;;;;;46.35;29.75;;;7.50;92.30;;;;;;5005892;28;20501;-80
2021/03/10 12:20:00;;;;;;;49.17;31.48;;;7.50;92.00;;;;;;4961734;28;21906;-82
2021/03/10 12:22:26;;;;;;;47.50;30.70;;;7.50;92.40;;;;;;4976528;28;20053;-81
2021/03/10 12:24:52;;;;;;;47.28;31.83;;;7.50;92.00;;;;;;4981422;28;20038;-82
2021/03/10 12:27:24;;;;;;;48.92;31.23;;;7.60;92.30;;;;;;4979955;28;20617;-81
2021/03/10 12:29:55;;;;;;;49.17;30.55;;;7.60;92.20;;;;;;4970172;28;20752;-82
2021/03/10 12:32:27;;;;;;;47.95;31.48;;;7.60;92.00;;;;;;4983990;28;20042;-83
2021/03/10 12:34:54;;;;;;;47.22;29.92;;;7.60;92.10;;;;;;4979996;28;20042;-81
2021/03/10 12:37:21;;;;;;;49.35;30.13;;;7.60;92.00;;;;;;4979790;28;20061;-82
2021/03/10 12:39:48;;;;;;;50.28;29.88;;;7.60;92.20;;;;;;4972501;28;20544;-82
2021/03/10 12:42:14;;;;;;;44.35;29.35;;;7.60;92.20;;;;;;4983026;28;20038;-81